Aérodrome :
LOGIN :

S'inscrire | Disclaimer

   EN    FR    IT 

 










Légende :    VFR   VFR Marginal   IFR   IFR Intensif   IFR Très Intensif
Visi : 
Plafond : 
>= 8 km
>= 3000ft
5 à 8 km
1000 à 3000 ft
1500m à 5 km
500 à 1000 ft
800 à 1500m
200 à 500 ft
< 800m
< 200 ft
Symboles :   Orages  Brouillard  Fortes neiges  Fortes précipitations  Vent > 20 kt
SIGMETs :   Divers  Orages  Givrage  Turbulence  Onde Orograph.  Cendres Volcan.






- Altitude de l'aérodrome : 1106 ft


LFSO - Nancy / Ochey

DERNIER METAR :
  • 280600Z AUTO 34004KT 0300 0250 R20/0325N FG VV/// 02/01 Q1020

METARs EXPIRÉS :
  • 280530Z AUTO 34005KT 310V020 0400 R20/0450D FG VV/// 02/02 Q1020
  • 280500Z AUTO 33003KT 1100 0900 R20/1700U BCFG OVC003 02/02 Q1020
  • 280430Z AUTO 32005KT 1300 1100 R20/1900N BR OVC003 02/02 Q1020
  • 280400Z AUTO 34003KT 310V010 1400 1200 R20/1800D BR OVC003 02/02 Q1019
  • 280330Z AUTO 34004KT 0350 0300 R20/0400N FG VV/// 02/02 Q1019
  • 280300Z AUTO 34004KT 0250 R20/0250N FG VV/// 02/02 Q1019
  • 280230Z AUTO 34003KT 0300 R20/0375N FG VV/// 02/02 Q1019
  • 280200Z AUTO 36004KT 0750 0550 R20/0650D FG VV/// 02/02 Q1019
  • 280130Z AUTO 33004KT 2600 BR BKN003 02/01 Q1019

TAF TAF LFSO
Valide du 28 à 06h jusqu'au 29 à 03h UTC


280604Z 2806/2903 VRB02KT 0300 FG VV///
BECMG 2810/2811 2000 BR SCT003 BKN007
BECMG 2813/2814 7000 NSW SCT010
BECMG 2822/2824 0400 FG VV///



MET'MAP, la Météo Aéronautique d'un coup d'oeil ! - Copyright ORBIFLY Décembre 2007 - Disclaimer

ORBIFLY MET'MAP TEAM :

Programmation & Développement : Alexandra Zaïnal
Sur une idée originale de : Baudouin d'Aumeries
Soutien technique & logistique : Manuel Goepfert
Assistance : Marc-Olivier Méhu




SOURCES & CREDITS :

   NOAA